sensor_id;sensor_type;location;lat;lon;timestamp;P1;durP1;ratioP1;P2;durP2;ratioP2
21567;SDS011;10944;42.590;12.630;2022-08-25T00:00:45;2.97;;;1.25;;
21567;SDS011;10944;42.590;12.630;2022-08-25T00:03:12;6.60;;;1.67;;
21567;SDS011;10944;42.590;12.630;2022-08-25T00:05:39;2.42;;;1.50;;
21567;SDS011;10944;42.590;12.630;2022-08-25T00:08:05;2.97;;;1.60;;
21567;SDS011;10944;42.590;12.630;2022-08-25T00:10:36;3.17;;;1.52;;
21567;SDS011;10944;42.590;12.630;2022-08-25T00:13:03;3.50;;;1.48;;
21567;SDS011;10944;42.590;12.630;2022-08-25T00:15:29;3.85;;;1.50;;
21567;SDS011;10944;42.590;12.630;2022-08-25T00:17:56;3.58;;;1.83;;
21567;SDS011;10944;42.590;12.630;2022-08-25T00:20:24;5.28;;;1.70;;
21567;SDS011;10944;42.590;12.630;2022-08-25T00:22:50;4.53;;;1.80;;
21567;SDS011;10944;42.590;12.630;2022-08-25T00:25:17;4.13;;;1.50;;
21567;SDS011;10944;42.590;12.630;2022-08-25T00:27:43;2.40;;;1.40;;
21567;SDS011;10944;42.590;12.630;2022-08-25T00:30:11;4.20;;;1.70;;
21567;SDS011;10944;42.590;12.630;2022-08-25T00:32:38;3.70;;;1.70;;
21567;SDS011;10944;42.590;12.630;2022-08-25T00:35:04;3.63;;;1.90;;
21567;SDS011;10944;42.590;12.630;2022-08-25T00:37:31;3.45;;;1.67;;
21567;SDS011;10944;42.590;12.630;2022-08-25T00:39:56;3.13;;;1.90;;
21567;SDS011;10944;42.590;12.630;2022-08-25T00:42:23;5.63;;;1.65;;
21567;SDS011;10944;42.590;12.630;2022-08-25T00:44:49;4.75;;;1.80;;
21567;SDS011;10944;42.590;12.630;2022-08-25T00:47:15;3.33;;;1.90;;
21567;SDS011;10944;42.590;12.630;2022-08-25T00:49:52;2.45;;;1.60;;
21567;SDS011;10944;42.590;12.630;2022-08-25T00:52:26;4.85;;;2.10;;
21567;SDS011;10944;42.590;12.630;2022-08-25T00:55:00;5.07;;;1.83;;
21567;SDS011;10944;42.590;12.630;2022-08-25T00:58:15;3.55;;;1.95;;
21567;SDS011;10944;42.590;12.630;2022-08-25T01:00:24;3.53;;;1.90;;
21567;SDS011;10944;42.590;12.630;2022-08-25T01:02:56;5.53;;;1.80;;
21567;SDS011;10944;42.590;12.630;2022-08-25T01:05:22;3.88;;;1.80;;
21567;SDS011;10944;42.590;12.630;2022-08-25T01:07:49;3.92;;;1.85;;
21567;SDS011;10944;42.590;12.630;2022-08-25T01:10:16;3.88;;;1.80;;
21567;SDS011;10944;42.590;12.630;2022-08-25T01:12:45;5.32;;;1.90;;
21567;SDS011;10944;42.590;12.630;2022-08-25T01:15:11;4.20;;;1.90;;
21567;SDS011;10944;42.590;12.630;2022-08-25T01:17:52;4.10;;;1.90;;
21567;SDS011;10944;42.590;12.630;2022-08-25T01:20:20;3.70;;;1.92;;
21567;SDS011;10944;42.590;12.630;2022-08-25T01:22:48;4.60;;;2.13;;
21567;SDS011;10944;42.590;12.630;2022-08-25T01:27:47;5.35;;;2.17;;
21567;SDS011;10944;42.590;12.630;2022-08-25T01:30:12;5.72;;;2.28;;
21567;SDS011;10944;42.590;12.630;2022-08-25T01:32:38;3.65;;;2.05;;
21567;SDS011;10944;42.590;12.630;2022-08-25T01:35:04;3.53;;;2.10;;
21567;SDS011;10944;42.590;12.630;2022-08-25T01:37:32;4.25;;;2.00;;
21567;SDS011;10944;42.590;12.630;2022-08-25T01:39:58;4.60;;;2.40;;
21567;SDS011;10944;42.590;12.630;2022-08-25T01:42:32;4.75;;;1.90;;
21567;SDS011;10944;42.590;12.630;2022-08-25T01:45:01;3.33;;;2.10;;
21567;SDS011;10944;42.590;12.630;2022-08-25T01:47:27;4.47;;;2.10;;
21567;SDS011;10944;42.590;12.630;2022-08-25T01:49:53;3.90;;;2.00;;
21567;SDS011;10944;42.590;12.630;2022-08-25T01:52:23;4.18;;;2.08;;
21567;SDS011;10944;42.590;12.630;2022-08-25T01:54:51;3.40;;;2.20;;
21567;SDS011;10944;42.590;12.630;2022-08-25T01:57:17;3.22;;;2.38;;
21567;SDS011;10944;42.590;12.630;2022-08-25T01:59:43;4.13;;;2.30;;
21567;SDS011;10944;42.590;12.630;2022-08-25T02:02:09;6.55;;;2.28;;
21567;SDS011;10944;42.590;12.630;2022-08-25T02:04:35;4.47;;;2.53;;
21567;SDS011;10944;42.590;12.630;2022-08-25T02:07:02;5.63;;;2.20;;
21567;SDS011;10944;42.590;12.630;2022-08-25T02:09:29;5.25;;;2.30;;
21567;SDS011;10944;42.590;12.630;2022-08-25T02:11:55;3.83;;;2.03;;
21567;SDS011;10944;42.590;12.630;2022-08-25T02:14:21;4.80;;;2.30;;
21567;SDS011;10944;42.590;12.630;2022-08-25T02:16:48;4.47;;;2.38;;
21567;SDS011;10944;42.590;12.630;2022-08-25T02:19:16;4.88;;;2.17;;
21567;SDS011;10944;42.590;12.630;2022-08-25T02:21:43;5.75;;;2.20;;
21567;SDS011;10944;42.590;12.630;2022-08-25T02:24:09;5.30;;;2.70;;
21567;SDS011;10944;42.590;12.630;2022-08-25T02:26:36;6.20;;;2.45;;
21567;SDS011;10944;42.590;12.630;2022-08-25T02:29:02;3.58;;;2.17;;
21567;SDS011;10944;42.590;12.630;2022-08-25T02:31:29;5.40;;;2.10;;
21567;SDS011;10944;42.590;12.630;2022-08-25T02:33:55;5.05;;;2.20;;
21567;SDS011;10944;42.590;12.630;2022-08-25T02:36:21;5.05;;;2.00;;
21567;SDS011;10944;42.590;12.630;2022-08-25T02:38:47;5.05;;;2.50;;
21567;SDS011;10944;42.590;12.630;2022-08-25T02:41:15;4.32;;;2.20;;
21567;SDS011;10944;42.590;12.630;2022-08-25T02:43:46;4.72;;;2.53;;
21567;SDS011;10944;42.590;12.630;2022-08-25T02:46:13;7.35;;;2.40;;
21567;SDS011;10944;42.590;12.630;2022-08-25T02:48:41;3.88;;;2.10;;
21567;SDS011;10944;42.590;12.630;2022-08-25T02:51:07;5.25;;;2.13;;
21567;SDS011;10944;42.590;12.630;2022-08-25T02:53:34;5.53;;;2.10;;
21567;SDS011;10944;42.590;12.630;2022-08-25T02:56:03;5.85;;;2.40;;
21567;SDS011;10944;42.590;12.630;2022-08-25T02:58:31;6.15;;;2.00;;
21567;SDS011;10944;42.590;12.630;2022-08-25T03:00:57;4.47;;;2.33;;
21567;SDS011;10944;42.590;12.630;2022-08-25T03:03:22;3.25;;;1.90;;
21567;SDS011;10944;42.590;12.630;2022-08-25T03:05:48;5.35;;;2.22;;
21567;SDS011;10944;42.590;12.630;2022-08-25T03:08:14;5.40;;;2.03;;
21567;SDS011;10944;42.590;12.630;2022-08-25T03:10:40;3.05;;;2.03;;
21567;SDS011;10944;42.590;12.630;2022-08-25T03:13:06;5.32;;;2.47;;
21567;SDS011;10944;42.590;12.630;2022-08-25T03:15:31;6.47;;;2.38;;
21567;SDS011;10944;42.590;12.630;2022-08-25T03:17:58;6.85;;;2.55;;
21567;SDS011;10944;42.590;12.630;2022-08-25T03:20:24;5.75;;;2.10;;
21567;SDS011;10944;42.590;12.630;2022-08-25T03:22:51;3.20;;;2.00;;
21567;SDS011;10944;42.590;12.630;2022-08-25T03:25:17;4.07;;;2.20;;
21567;SDS011;10944;42.590;12.630;2022-08-25T03:28:02;4.47;;;2.20;;
21567;SDS011;10944;42.590;12.630;2022-08-25T03:30:28;6.80;;;2.13;;
21567;SDS011;10944;42.590;12.630;2022-08-25T03:32:54;3.83;;;2.15;;
21567;SDS011;10944;42.590;12.630;2022-08-25T03:35:20;5.28;;;2.22;;
21567;SDS011;10944;42.590;12.630;2022-08-25T03:37:46;3.80;;;2.10;;
21567;SDS011;10944;42.590;12.630;2022-08-25T03:40:14;4.55;;;2.25;;
21567;SDS011;10944;42.590;12.630;2022-08-25T03:42:42;4.22;;;2.38;;
21567;SDS011;10944;42.590;12.630;2022-08-25T03:45:09;6.55;;;2.25;;
21567;SDS011;10944;42.590;12.630;2022-08-25T03:47:37;4.57;;;2.38;;
21567;SDS011;10944;42.590;12.630;2022-08-25T03:50:05;5.18;;;2.58;;
21567;SDS011;10944;42.590;12.630;2022-08-25T03:52:32;5.70;;;2.50;;
21567;SDS011;10944;42.590;12.630;2022-08-25T03:54:58;3.78;;;2.35;;
21567;SDS011;10944;42.590;12.630;2022-08-25T03:57:24;4.28;;;2.53;;
21567;SDS011;10944;42.590;12.630;2022-08-25T03:59:50;6.40;;;2.60;;
21567;SDS011;10944;42.590;12.630;2022-08-25T04:02:16;6.55;;;2.70;;
21567;SDS011;10944;42.590;12.630;2022-08-25T04:04:42;4.47;;;2.50;;
21567;SDS011;10944;42.590;12.630;2022-08-25T04:07:08;5.60;;;2.70;;
21567;SDS011;10944;42.590;12.630;2022-08-25T04:09:34;4.47;;;2.70;;
21567;SDS011;10944;42.590;12.630;2022-08-25T04:12:00;4.82;;;2.92;;
21567;SDS011;10944;42.590;12.630;2022-08-25T04:14:26;6.47;;;2.88;;
21567;SDS011;10944;42.590;12.630;2022-08-25T04:16:52;5.13;;;3.10;;
21567;SDS011;10944;42.590;12.630;2022-08-25T04:19:17;4.43;;;2.85;;
21567;SDS011;10944;42.590;12.630;2022-08-25T04:21:44;5.15;;;2.97;;
21567;SDS011;10944;42.590;12.630;2022-08-25T04:24:10;4.80;;;3.05;;
21567;SDS011;10944;42.590;12.630;2022-08-25T04:26:38;4.60;;;2.65;;
21567;SDS011;10944;42.590;12.630;2022-08-25T04:29:07;8.02;;;2.80;;
21567;SDS011;10944;42.590;12.630;2022-08-25T04:31:34;9.95;;;3.00;;
21567;SDS011;10944;42.590;12.630;2022-08-25T04:34:03;5.82;;;2.65;;
21567;SDS011;10944;42.590;12.630;2022-08-25T04:36:29;4.40;;;2.60;;
21567;SDS011;10944;42.590;12.630;2022-08-25T04:38:56;5.88;;;2.75;;
21567;SDS011;10944;42.590;12.630;2022-08-25T04:41:22;7.63;;;2.95;;
21567;SDS011;10944;42.590;12.630;2022-08-25T04:43:48;8.32;;;2.80;;
21567;SDS011;10944;42.590;12.630;2022-08-25T04:48:43;5.90;;;2.80;;
21567;SDS011;10944;42.590;12.630;2022-08-25T04:51:10;6.53;;;2.60;;
21567;SDS011;10944;42.590;12.630;2022-08-25T04:53:39;4.93;;;2.47;;
21567;SDS011;10944;42.590;12.630;2022-08-25T04:56:05;5.72;;;2.70;;
21567;SDS011;10944;42.590;12.630;2022-08-25T04:58:33;4.90;;;2.35;;
21567;SDS011;10944;42.590;12.630;2022-08-25T05:01:09;5.90;;;2.90;;
21567;SDS011;10944;42.590;12.630;2022-08-25T05:03:37;6.15;;;2.83;;
21567;SDS011;10944;42.590;12.630;2022-08-25T05:06:03;8.05;;;2.90;;
21567;SDS011;10944;42.590;12.630;2022-08-25T05:08:30;6.25;;;2.58;;
21567;SDS011;10944;42.590;12.630;2022-08-25T05:11:03;6.95;;;3.17;;
21567;SDS011;10944;42.590;12.630;2022-08-25T05:13:30;7.57;;;3.08;;
21567;SDS011;10944;42.590;12.630;2022-08-25T05:15:57;8.55;;;3.58;;
21567;SDS011;10944;42.590;12.630;2022-08-25T05:18:24;6.35;;;2.97;;
21567;SDS011;10944;42.590;12.630;2022-08-25T05:20:52;7.90;;;3.75;;
21567;SDS011;10944;42.590;12.630;2022-08-25T05:23:20;8.52;;;4.93;;
21567;SDS011;10944;42.590;12.630;2022-08-25T05:25:47;5.50;;;3.10;;
21567;SDS011;10944;42.590;12.630;2022-08-25T05:28:15;7.10;;;3.00;;
21567;SDS011;10944;42.590;12.630;2022-08-25T05:30:42;4.95;;;2.80;;
21567;SDS011;10944;42.590;12.630;2022-08-25T05:33:09;7.45;;;2.97;;
21567;SDS011;10944;42.590;12.630;2022-08-25T05:35:36;6.82;;;3.00;;
21567;SDS011;10944;42.590;12.630;2022-08-25T05:38:03;6.07;;;2.95;;
21567;SDS011;10944;42.590;12.630;2022-08-25T05:40:30;7.88;;;3.58;;
21567;SDS011;10944;42.590;12.630;2022-08-25T05:42:56;10.93;;;6.35;;
21567;SDS011;10944;42.590;12.630;2022-08-25T05:45:23;6.72;;;3.60;;
21567;SDS011;10944;42.590;12.630;2022-08-25T05:47:49;5.07;;;2.83;;
21567;SDS011;10944;42.590;12.630;2022-08-25T05:50:15;5.20;;;2.65;;
21567;SDS011;10944;42.590;12.630;2022-08-25T05:52:42;4.78;;;2.80;;
21567;SDS011;10944;42.590;12.630;2022-08-25T05:55:08;6.72;;;2.72;;
21567;SDS011;10944;42.590;12.630;2022-08-25T05:57:34;5.50;;;2.60;;
21567;SDS011;10944;42.590;12.630;2022-08-25T06:00:00;4.88;;;2.67;;
21567;SDS011;10944;42.590;12.630;2022-08-25T06:02:28;4.50;;;2.70;;
21567;SDS011;10944;42.590;12.630;2022-08-25T06:05:18;7.20;;;2.90;;
21567;SDS011;10944;42.590;12.630;2022-08-25T06:07:46;6.18;;;2.70;;
21567;SDS011;10944;42.590;12.630;2022-08-25T06:10:14;4.53;;;2.50;;
21567;SDS011;10944;42.590;12.630;2022-08-25T06:12:42;7.15;;;3.40;;
21567;SDS011;10944;42.590;12.630;2022-08-25T06:15:09;4.30;;;2.45;;
21567;SDS011;10944;42.590;12.630;2022-08-25T06:17:39;5.20;;;2.53;;
21567;SDS011;10944;42.590;12.630;2022-08-25T06:20:07;3.92;;;2.33;;
21567;SDS011;10944;42.590;12.630;2022-08-25T06:22:35;4.22;;;2.28;;
21567;SDS011;10944;42.590;12.630;2022-08-25T06:25:02;5.80;;;2.63;;
21567;SDS011;10944;42.590;12.630;2022-08-25T06:27:29;5.22;;;2.22;;
21567;SDS011;10944;42.590;12.630;2022-08-25T06:29:54;9.57;;;3.05;;
21567;SDS011;10944;42.590;12.630;2022-08-25T06:32:20;4.70;;;2.53;;
21567;SDS011;10944;42.590;12.630;2022-08-25T06:34:46;7.28;;;2.80;;
21567;SDS011;10944;42.590;12.630;2022-08-25T06:37:12;6.97;;;3.38;;
21567;SDS011;10944;42.590;12.630;2022-08-25T06:39:37;5.05;;;3.10;;
21567;SDS011;10944;42.590;12.630;2022-08-25T06:42:03;4.45;;;2.30;;
21567;SDS011;10944;42.590;12.630;2022-08-25T06:44:29;4.72;;;2.20;;
21567;SDS011;10944;42.590;12.630;2022-08-25T06:46:55;7.47;;;2.60;;
21567;SDS011;10944;42.590;12.630;2022-08-25T06:49:21;3.58;;;2.33;;
21567;SDS011;10944;42.590;12.630;2022-08-25T06:51:47;4.32;;;2.30;;
21567;SDS011;10944;42.590;12.630;2022-08-25T06:54:14;3.95;;;2.10;;
21567;SDS011;10944;42.590;12.630;2022-08-25T06:56:40;4.97;;;2.35;;
21567;SDS011;10944;42.590;12.630;2022-08-25T06:59:06;6.72;;;2.30;;
21567;SDS011;10944;42.590;12.630;2022-08-25T07:01:33;5.93;;;2.20;;
21567;SDS011;10944;42.590;12.630;2022-08-25T07:03:59;6.68;;;2.60;;
21567;SDS011;10944;42.590;12.630;2022-08-25T07:06:27;4.97;;;2.20;;
21567;SDS011;10944;42.590;12.630;2022-08-25T07:08:55;5.40;;;2.35;;
21567;SDS011;10944;42.590;12.630;2022-08-25T07:11:22;4.18;;;1.95;;
21567;SDS011;10944;42.590;12.630;2022-08-25T07:13:48;4.15;;;2.30;;
21567;SDS011;10944;42.590;12.630;2022-08-25T07:16:15;7.53;;;2.20;;
21567;SDS011;10944;42.590;12.630;2022-08-25T07:18:43;5.00;;;2.20;;
21567;SDS011;10944;42.590;12.630;2022-08-25T07:21:09;4.07;;;2.25;;
21567;SDS011;10944;42.590;12.630;2022-08-25T07:23:36;3.17;;;2.10;;
21567;SDS011;10944;42.590;12.630;2022-08-25T07:26:07;5.88;;;2.40;;
21567;SDS011;10944;42.590;12.630;2022-08-25T07:28:36;5.57;;;2.33;;
21567;SDS011;10944;42.590;12.630;2022-08-25T07:31:03;13.02;;;7.43;;
21567;SDS011;10944;42.590;12.630;2022-08-25T07:33:29;7.53;;;2.97;;
21567;SDS011;10944;42.590;12.630;2022-08-25T07:35:55;6.43;;;2.70;;
21567;SDS011;10944;42.590;12.630;2022-08-25T07:38:21;5.35;;;2.50;;
21567;SDS011;10944;42.590;12.630;2022-08-25T07:40:47;5.53;;;3.20;;
21567;SDS011;10944;42.590;12.630;2022-08-25T07:43:18;5.50;;;2.50;;
21567;SDS011;10944;42.590;12.630;2022-08-25T07:45:45;5.95;;;2.53;;
21567;SDS011;10944;42.590;12.630;2022-08-25T07:48:11;4.55;;;2.55;;
21567;SDS011;10944;42.590;12.630;2022-08-25T07:50:39;4.93;;;2.45;;
21567;SDS011;10944;42.590;12.630;2022-08-25T07:53:07;8.18;;;2.70;;
21567;SDS011;10944;42.590;12.630;2022-08-25T07:55:34;53.70;;;34.33;;
21567;SDS011;10944;42.590;12.630;2022-08-25T07:58:04;13.38;;;8.70;;
21567;SDS011;10944;42.590;12.630;2022-08-25T08:00:32;25.73;;;17.58;;
21567;SDS011;10944;42.590;12.630;2022-08-25T08:03:01;14.20;;;9.13;;
21567;SDS011;10944;42.590;12.630;2022-08-25T08:05:29;8.02;;;5.20;;
21567;SDS011;10944;42.590;12.630;2022-08-25T08:07:55;6.30;;;3.30;;
21567;SDS011;10944;42.590;12.630;2022-08-25T08:10:21;6.97;;;2.97;;
21567;SDS011;10944;42.590;12.630;2022-08-25T08:12:47;6.88;;;3.40;;
21567;SDS011;10944;42.590;12.630;2022-08-25T08:15:13;8.18;;;3.05;;
21567;SDS011;10944;42.590;12.630;2022-08-25T08:17:39;7.10;;;2.78;;
21567;SDS011;10944;42.590;12.630;2022-08-25T08:20:06;4.82;;;2.60;;
21567;SDS011;10944;42.590;12.630;2022-08-25T08:22:34;4.68;;;2.50;;
21567;SDS011;10944;42.590;12.630;2022-08-25T08:25:02;4.50;;;2.33;;
21567;SDS011;10944;42.590;12.630;2022-08-25T08:27:28;6.80;;;2.30;;
21567;SDS011;10944;42.590;12.630;2022-08-25T08:29:54;5.65;;;2.45;;
21567;SDS011;10944;42.590;12.630;2022-08-25T08:32:20;6.25;;;2.95;;
21567;SDS011;10944;42.590;12.630;2022-08-25T08:34:46;14.95;;;9.55;;
21567;SDS011;10944;42.590;12.630;2022-08-25T08:37:12;26.50;;;19.90;;
21567;SDS011;10944;42.590;12.630;2022-08-25T08:39:39;20.08;;;14.82;;
21567;SDS011;10944;42.590;12.630;2022-08-25T08:45:03;28.02;;;20.33;;
21567;SDS011;10944;42.590;12.630;2022-08-25T08:47:42;11.02;;;7.00;;
21567;SDS011;10944;42.590;12.630;2022-08-25T08:51:16;6.25;;;3.63;;
21567;SDS011;10944;42.590;12.630;2022-08-25T08:56:09;64.28;;;36.28;;
21567;SDS011;10944;42.590;12.630;2022-08-25T08:58:44;34.40;;;21.50;;
21567;SDS011;10944;42.590;12.630;2022-08-25T09:01:29;31.52;;;18.63;;
21567;SDS011;10944;42.590;12.630;2022-08-25T09:04:10;19.85;;;11.50;;
21567;SDS011;10944;42.590;12.630;2022-08-25T09:06:44;19.58;;;11.70;;
21567;SDS011;10944;42.590;12.630;2022-08-25T09:09:13;29.42;;;17.35;;
21567;SDS011;10944;42.590;12.630;2022-08-25T09:33:22;7.82;;;4.32;;
21567;SDS011;10944;42.590;12.630;2022-08-25T09:35:50;5.47;;;2.92;;
21567;SDS011;10944;42.590;12.630;2022-08-25T09:38:17;6.38;;;4.07;;
21567;SDS011;10944;42.590;12.630;2022-08-25T09:40:47;11.18;;;6.25;;
21567;SDS011;10944;42.590;12.630;2022-08-25T09:43:21;22.45;;;16.88;;
21567;SDS011;10944;42.590;12.630;2022-08-25T09:51:31;13.32;;;8.68;;
21567;SDS011;10944;42.590;12.630;2022-08-25T09:54:02;10.38;;;5.32;;
21567;SDS011;10944;42.590;12.630;2022-08-25T09:56:53;11.10;;;8.05;;
21567;SDS011;10944;42.590;12.630;2022-08-25T09:59:21;8.52;;;5.35;;
21567;SDS011;10944;42.590;12.630;2022-08-25T10:01:53;10.48;;;7.03;;
21567;SDS011;10944;42.590;12.630;2022-08-25T10:04:28;13.23;;;9.27;;
21567;SDS011;10944;42.590;12.630;2022-08-25T10:06:56;8.18;;;5.68;;
21567;SDS011;10944;42.590;12.630;2022-08-25T10:09:28;32.78;;;24.30;;
21567;SDS011;10944;42.590;12.630;2022-08-25T10:11:58;12.73;;;9.30;;
21567;SDS011;10944;42.590;12.630;2022-08-25T10:14:33;11.10;;;7.03;;
21567;SDS011;10944;42.590;12.630;2022-08-25T10:19:51;12.43;;;8.13;;
21567;SDS011;10944;42.590;12.630;2022-08-25T10:24:46;29.38;;;21.38;;
21567;SDS011;10944;42.590;12.630;2022-08-25T10:27:37;18.30;;;13.48;;
21567;SDS011;10944;42.590;12.630;2022-08-25T10:30:13;10.85;;;7.70;;
21567;SDS011;10944;42.590;12.630;2022-08-25T10:35:33;8.63;;;5.00;;
21567;SDS011;10944;42.590;12.630;2022-08-25T10:38:17;18.15;;;13.02;;
21567;SDS011;10944;42.590;12.630;2022-08-25T10:41:02;33.15;;;26.35;;
21567;SDS011;10944;42.590;12.630;2022-08-25T10:43:45;36.05;;;29.27;;
21567;SDS011;10944;42.590;12.630;2022-08-25T10:48:57;11.00;;;8.50;;
21567;SDS011;10944;42.590;12.630;2022-08-25T10:59:46;4.70;;;3.05;;
21567;SDS011;10944;42.590;12.630;2022-08-25T11:02:35;5.43;;;3.70;;
21567;SDS011;10944;42.590;12.630;2022-08-25T11:05:46;4.85;;;2.55;;
21567;SDS011;10944;42.590;12.630;2022-08-25T11:08:12;7.72;;;2.70;;
21567;SDS011;10944;42.590;12.630;2022-08-25T11:10:45;4.53;;;2.80;;
21567;SDS011;10944;42.590;12.630;2022-08-25T11:13:21;4.15;;;2.75;;
21567;SDS011;10944;42.590;12.630;2022-08-25T11:16:17;6.43;;;2.65;;
21567;SDS011;10944;42.590;12.630;2022-08-25T11:19:09;3.75;;;2.40;;
21567;SDS011;10944;42.590;12.630;2022-08-25T11:22:00;3.70;;;2.28;;
21567;SDS011;10944;42.590;12.630;2022-08-25T11:24:39;6.53;;;2.40;;
21567;SDS011;10944;42.590;12.630;2022-08-25T11:27:46;3.35;;;2.25;;
21567;SDS011;10944;42.590;12.630;2022-08-25T11:30:18;3.65;;;2.67;;
21567;SDS011;10944;42.590;12.630;2022-08-25T11:32:48;5.68;;;2.60;;
21567;SDS011;10944;42.590;12.630;2022-08-25T11:35:17;3.95;;;2.38;;
21567;SDS011;10944;42.590;12.630;2022-08-25T11:42:58;3.65;;;2.42;;
21567;SDS011;10944;42.590;12.630;2022-08-25T11:47:59;5.82;;;2.63;;
21567;SDS011;10944;42.590;12.630;2022-08-25T11:50:59;3.90;;;2.95;;
21567;SDS011;10944;42.590;12.630;2022-08-25T11:53:24;4.68;;;2.50;;
21567;SDS011;10944;42.590;12.630;2022-08-25T11:55:57;4.90;;;2.50;;
21567;SDS011;10944;42.590;12.630;2022-08-25T12:01:00;4.10;;;2.50;;
21567;SDS011;10944;42.590;12.630;2022-08-25T12:06:14;5.30;;;3.50;;
21567;SDS011;10944;42.590;12.630;2022-08-25T12:21:54;3.88;;;2.70;;
21567;SDS011;10944;42.590;12.630;2022-08-25T12:37:32;5.25;;;2.63;;
21567;SDS011;10944;42.590;12.630;2022-08-25T12:39:59;4.03;;;2.40;;
21567;SDS011;10944;42.590;12.630;2022-08-25T12:42:33;3.10;;;2.15;;
21567;SDS011;10944;42.590;12.630;2022-08-25T12:47:53;3.58;;;2.60;;
21567;SDS011;10944;42.590;12.630;2022-08-25T12:53:09;3.67;;;2.38;;
21567;SDS011;10944;42.590;12.630;2022-08-25T12:55:40;3.83;;;2.35;;
21567;SDS011;10944;42.590;12.630;2022-08-25T12:58:13;3.65;;;2.42;;
21567;SDS011;10944;42.590;12.630;2022-08-25T13:06:33;3.75;;;2.03;;
21567;SDS011;10944;42.590;12.630;2022-08-25T13:12:22;3.20;;;2.10;;
21567;SDS011;10944;42.590;12.630;2022-08-25T13:15:26;3.47;;;1.90;;
21567;SDS011;10944;42.590;12.630;2022-08-25T13:21:26;4.53;;;2.10;;
21567;SDS011;10944;42.590;12.630;2022-08-25T13:23:48;4.93;;;2.13;;
21567;SDS011;10944;42.590;12.630;2022-08-25T13:26:27;3.97;;;2.20;;
21567;SDS011;10944;42.590;12.630;2022-08-25T13:29:15;4.65;;;2.08;;
21567;SDS011;10944;42.590;12.630;2022-08-25T13:31:52;3.28;;;2.00;;
21567;SDS011;10944;42.590;12.630;2022-08-25T13:34:25;3.60;;;1.98;;
21567;SDS011;10944;42.590;12.630;2022-08-25T13:36:52;5.75;;;3.42;;
21567;SDS011;10944;42.590;12.630;2022-08-25T13:39:37;3.90;;;2.35;;
21567;SDS011;10944;42.590;12.630;2022-08-25T13:42:04;3.42;;;2.00;;
21567;SDS011;10944;42.590;12.630;2022-08-25T13:44:37;3.20;;;2.10;;
21567;SDS011;10944;42.590;12.630;2022-08-25T13:47:08;3.90;;;2.40;;
21567;SDS011;10944;42.590;12.630;2022-08-25T13:49:40;4.75;;;2.42;;
21567;SDS011;10944;42.590;12.630;2022-08-25T13:52:14;3.83;;;2.28;;
21567;SDS011;10944;42.590;12.630;2022-08-25T13:54:50;3.45;;;2.50;;
21567;SDS011;10944;42.590;12.630;2022-08-25T13:57:18;3.45;;;2.13;;
21567;SDS011;10944;42.590;12.630;2022-08-25T13:59:52;4.75;;;3.50;;
21567;SDS011;10944;42.590;12.630;2022-08-25T14:05:12;3.10;;;2.15;;
21567;SDS011;10944;42.590;12.630;2022-08-25T14:07:39;4.15;;;2.40;;
21567;SDS011;10944;42.590;12.630;2022-08-25T14:10:07;4.10;;;2.42;;
21567;SDS011;10944;42.590;12.630;2022-08-25T14:12:42;5.07;;;2.38;;
21567;SDS011;10944;42.590;12.630;2022-08-25T14:15:14;5.43;;;2.42;;
21567;SDS011;10944;42.590;12.630;2022-08-25T14:20:56;3.58;;;2.28;;
21567;SDS011;10944;42.590;12.630;2022-08-25T14:23:26;5.15;;;2.70;;
21567;SDS011;10944;42.590;12.630;2022-08-25T14:25:55;4.38;;;2.10;;
21567;SDS011;10944;42.590;12.630;2022-08-25T14:28:25;3.53;;;2.35;;
21567;SDS011;10944;42.590;12.630;2022-08-25T14:30:55;4.80;;;2.78;;
21567;SDS011;10944;42.590;12.630;2022-08-25T14:33:34;4.15;;;3.00;;
21567;SDS011;10944;42.590;12.630;2022-08-25T14:36:04;111.55;;;13.98;;
21567;SDS011;10944;42.590;12.630;2022-08-25T14:38:30;272.58;;;27.60;;
21567;SDS011;10944;42.590;12.630;2022-08-25T14:40:57;125.38;;;16.83;;
21567;SDS011;10944;42.590;12.630;2022-08-25T14:43:23;15.05;;;4.50;;
21567;SDS011;10944;42.590;12.630;2022-08-25T14:45:49;684.75;;;184.13;;
21567;SDS011;10944;42.590;12.630;2022-08-25T14:48:17;470.70;;;119.22;;
21567;SDS011;10944;42.590;12.630;2022-08-25T14:50:51;780.08;;;214.40;;
21567;SDS011;10944;42.590;12.630;2022-08-25T14:53:18;889.30;;;258.98;;
21567;SDS011;10944;42.590;12.630;2022-08-25T14:55:44;210.60;;;55.25;;
21567;SDS011;10944;42.590;12.630;2022-08-25T14:58:09;544.38;;;137.25;;
21567;SDS011;10944;42.590;12.630;2022-08-25T15:00:42;1167.85;;;320.85;;
21567;SDS011;10944;42.590;12.630;2022-08-25T15:03:12;127.68;;;33.50;;
21567;SDS011;10944;42.590;12.630;2022-08-25T15:05:41;92.97;;;23.83;;
21567;SDS011;10944;42.590;12.630;2022-08-25T15:08:08;20.90;;;6.45;;
21567;SDS011;10944;42.590;12.630;2022-08-25T15:10:52;291.63;;;35.10;;
21567;SDS011;10944;42.590;12.630;2022-08-25T15:13:18;257.90;;;33.05;;
21567;SDS011;10944;42.590;12.630;2022-08-25T15:15:45;40.05;;;11.48;;
21567;SDS011;10944;42.590;12.630;2022-08-25T15:18:11;40.92;;;9.93;;
21567;SDS011;10944;42.590;12.630;2022-08-25T15:20:37;80.28;;;17.05;;
21567;SDS011;10944;42.590;12.630;2022-08-25T15:23:03;26.55;;;7.97;;
21567;SDS011;10944;42.590;12.630;2022-08-25T15:25:29;103.72;;;24.58;;
21567;SDS011;10944;42.590;12.630;2022-08-25T15:27:55;932.47;;;266.90;;
21567;SDS011;10944;42.590;12.630;2022-08-25T15:30:21;512.40;;;140.35;;
21567;SDS011;10944;42.590;12.630;2022-08-25T15:32:47;771.05;;;220.57;;
21567;SDS011;10944;42.590;12.630;2022-08-25T15:35:12;322.58;;;93.43;;
21567;SDS011;10944;42.590;12.630;2022-08-25T15:37:38;32.17;;;12.10;;
21567;SDS011;10944;42.590;12.630;2022-08-25T15:40:04;8.25;;;4.05;;
21567;SDS011;10944;42.590;12.630;2022-08-25T15:42:32;8.77;;;4.00;;
21567;SDS011;10944;42.590;12.630;2022-08-25T15:44:58;8.90;;;5.28;;
21567;SDS011;10944;42.590;12.630;2022-08-25T15:47:24;4.63;;;2.88;;
21567;SDS011;10944;42.590;12.630;2022-08-25T15:49:51;9.85;;;5.53;;
21567;SDS011;10944;42.590;12.630;2022-08-25T15:52:30;7.10;;;5.07;;
21567;SDS011;10944;42.590;12.630;2022-08-25T15:54:56;6.45;;;2.72;;
21567;SDS011;10944;42.590;12.630;2022-08-25T15:57:22;4.30;;;2.47;;
21567;SDS011;10944;42.590;12.630;2022-08-25T15:59:48;4.85;;;2.60;;
21567;SDS011;10944;42.590;12.630;2022-08-25T16:02:14;4.97;;;2.58;;
21567;SDS011;10944;42.590;12.630;2022-08-25T16:04:39;6.38;;;3.10;;
21567;SDS011;10944;42.590;12.630;2022-08-25T16:07:05;4.97;;;3.20;;
21567;SDS011;10944;42.590;12.630;2022-08-25T16:09:31;4.57;;;2.85;;
21567;SDS011;10944;42.590;12.630;2022-08-25T16:11:56;6.72;;;3.80;;
21567;SDS011;10944;42.590;12.630;2022-08-25T16:14:22;6.20;;;3.05;;
21567;SDS011;10944;42.590;12.630;2022-08-25T16:16:48;6.40;;;2.78;;
21567;SDS011;10944;42.590;12.630;2022-08-25T16:19:14;7.90;;;2.92;;
21567;SDS011;10944;42.590;12.630;2022-08-25T16:21:40;6.72;;;2.70;;
21567;SDS011;10944;42.590;12.630;2022-08-25T16:24:05;4.93;;;2.78;;
21567;SDS011;10944;42.590;12.630;2022-08-25T16:26:32;5.30;;;2.75;;
21567;SDS011;10944;42.590;12.630;2022-08-25T16:29:00;4.78;;;2.50;;
21567;SDS011;10944;42.590;12.630;2022-08-25T16:31:27;4.80;;;2.88;;
21567;SDS011;10944;42.590;12.630;2022-08-25T16:33:53;4.50;;;2.78;;
21567;SDS011;10944;42.590;12.630;2022-08-25T16:36:22;3.90;;;2.70;;
21567;SDS011;10944;42.590;12.630;2022-08-25T16:38:49;5.00;;;3.15;;
21567;SDS011;10944;42.590;12.630;2022-08-25T16:41:19;4.07;;;2.55;;
21567;SDS011;10944;42.590;12.630;2022-08-25T16:43:47;3.75;;;2.83;;